createdAt,value
2023-01-22T00:01:20.162Z,102674.31
2023-01-22T00:03:49.213Z,102673.41
2023-01-22T00:06:16.360Z,102674.25
2023-01-22T00:08:43.485Z,102667.97
2023-01-22T00:11:11.555Z,102669.72
2023-01-22T00:13:38.278Z,102662.78
2023-01-22T00:16:05.927Z,102664.66
2023-01-22T00:18:33.301Z,102659.22
2023-01-22T00:21:00.660Z,102655.84
2023-01-22T00:23:27.334Z,102659.38
2023-01-22T00:26:16.929Z,102665.63
2023-01-22T00:28:45.472Z,102657.72
2023-01-22T00:31:16.493Z,102653.25
2023-01-22T00:33:46.969Z,102660.34
2023-01-22T00:36:19.903Z,102650.66
2023-01-22T00:38:48.023Z,102658.41
2023-01-22T00:41:17.552Z,102642.59
2023-01-22T00:43:44.500Z,102642.69
2023-01-22T00:46:17.431Z,102648.75
2023-01-22T00:48:49.578Z,102641.69
2023-01-22T00:51:17.009Z,102637.19
2023-01-22T00:53:44.818Z,102646.13
2023-01-22T00:56:14.832Z,102639.75
2023-01-22T00:58:42.859Z,102635.34
2023-01-22T01:01:10.217Z,102636.09
2023-01-22T01:03:37.731Z,102631.75
2023-01-22T01:06:19.900Z,102627.38
2023-01-22T01:08:49.032Z,102627.28
2023-01-22T01:11:26.010Z,102622.91
2023-01-22T01:13:56.063Z,102623.75
2023-01-22T01:16:26.861Z,102626.53
2023-01-22T01:18:57.121Z,102629.13
2023-01-22T01:21:23.738Z,102640.63
2023-01-22T01:23:50.506Z,102634.50
2023-01-22T01:26:17.563Z,102633.66
2023-01-22T01:28:45.703Z,102635.50
2023-01-22T01:31:19.996Z,102632.91
2023-01-22T01:33:47.211Z,102633.78
2023-01-22T01:36:40.491Z,102624.88
2023-01-22T01:39:09.787Z,102623.06
2023-01-22T01:41:36.497Z,102620.44
2023-01-22T01:44:22.120Z,102616.91
2023-01-22T01:46:55.340Z,102621.34
2023-01-22T01:49:52.784Z,102618.63
2023-01-22T01:52:21.153Z,102623.22
2023-01-22T01:54:57.326Z,102631.16
2023-01-22T01:57:31.180Z,102630.25
2023-01-22T02:00:01.905Z,102630.03
2023-01-22T02:02:28.655Z,102641.56
2023-01-22T02:04:55.550Z,102636.25
2023-01-22T02:07:22.533Z,102640.78
2023-01-22T02:09:49.230Z,102646.97
2023-01-22T02:12:16.322Z,102639.81
2023-01-22T02:14:45.980Z,102648.72
2023-01-22T02:17:22.352Z,102641.53
2023-01-22T02:19:49.141Z,102633.59
2023-01-22T02:22:29.875Z,102640.66
2023-01-22T02:24:57.366Z,102636.25
2023-01-22T02:27:27.755Z,102634.50
2023-01-22T02:29:57.398Z,102637.09
2023-01-22T02:32:24.137Z,102632.66
2023-01-22T02:34:50.842Z,102635.44
2023-01-22T02:37:18.065Z,102632.69
2023-01-22T02:39:44.731Z,102635.31
2023-01-22T02:42:11.413Z,102632.72
2023-01-22T02:44:38.241Z,102633.53
2023-01-22T02:47:12.643Z,102648.53
2023-01-22T02:49:41.653Z,102635.25
2023-01-22T02:52:08.327Z,102641.50
2023-01-22T02:54:35.051Z,102637.06
2023-01-22T02:57:01.882Z,102643.22
2023-01-22T02:59:28.843Z,102644.19
2023-01-22T03:01:57.085Z,102648.66
2023-01-22T03:04:24.198Z,102652.13
2023-01-22T03:06:50.801Z,102643.22
2023-01-22T03:09:18.294Z,102641.50
2023-01-22T03:11:48.223Z,102645.06
2023-01-22T03:14:34.451Z,102652.16
2023-01-22T03:17:20.225Z,102654.75
2023-01-22T03:20:06.992Z,102655.63
2023-01-22T03:22:33.683Z,102655.66
2023-01-22T03:25:01.399Z,102651.97
2023-01-22T03:27:31.558Z,102658.25
2023-01-22T03:29:58.411Z,102649.38
2023-01-22T03:32:25.960Z,102663.38
2023-01-22T03:34:53.722Z,102649.91
2023-01-22T03:37:20.657Z,102646.47
2023-01-22T03:39:47.315Z,102641.38
2023-01-22T03:42:13.947Z,102650.25
2023-01-22T03:44:44.101Z,102648.38
2023-01-22T03:47:10.758Z,102644.53
2023-01-22T03:49:37.418Z,102650.78
2023-01-22T03:52:04.161Z,102650.06
2023-01-22T03:54:30.777Z,102651.03
2023-01-22T03:57:00.535Z,102648.16
2023-01-22T03:59:27.162Z,102648.38
2023-01-22T04:01:53.902Z,102649.94
2023-01-22T04:04:21.679Z,102655.41
2023-01-22T04:06:48.580Z,102655.44
2023-01-22T04:09:15.638Z,102653.72
2023-01-22T04:11:42.345Z,102663.34
2023-01-22T04:14:09.159Z,102656.22
2023-01-22T04:16:35.992Z,102655.28
2023-01-22T04:19:02.687Z,102658.97
2023-01-22T04:21:29.392Z,102653.66
2023-01-22T04:23:56.703Z,102645.75
2023-01-22T04:26:23.556Z,102638.72
2023-01-22T04:28:50.268Z,102648.41
2023-01-22T04:31:17.251Z,102640.44
2023-01-22T04:33:44.032Z,102636.81
2023-01-22T04:36:10.814Z,102643.09
2023-01-22T04:38:37.418Z,102632.50
2023-01-22T04:41:04.046Z,102627.13
2023-01-22T04:43:30.652Z,102626.16
2023-01-22T04:45:57.430Z,102611.13
2023-01-22T04:48:24.079Z,102621.69
2023-01-22T04:50:50.769Z,102622.53
2023-01-22T04:53:17.436Z,102618.97
2023-01-22T04:55:45.028Z,102610.91
2023-01-22T04:58:11.672Z,102614.22
2023-01-22T05:00:38.436Z,102620.41
2023-01-22T05:03:05.438Z,102608.88
2023-01-22T05:05:33.730Z,102608.00
2023-01-22T05:08:01.348Z,102602.81
2023-01-22T05:10:31.194Z,102602.75
2023-01-22T05:12:57.845Z,102608.00
2023-01-22T05:15:30.919Z,102606.25
2023-01-22T05:17:57.561Z,102604.44
2023-01-22T05:20:27.775Z,102604.47
2023-01-22T05:22:58.517Z,102592.91
2023-01-22T05:25:26.097Z,102591.00
2023-01-22T05:27:52.836Z,102600.63
2023-01-22T05:30:20.308Z,102604.09
2023-01-22T05:32:50.187Z,102605.88
2023-01-22T05:35:17.147Z,102609.31
2023-01-22T05:37:43.760Z,102612.88
2023-01-22T05:40:11.787Z,102609.41
2023-01-22T05:42:38.396Z,102612.06
2023-01-22T05:45:07.605Z,102608.47
2023-01-22T05:47:34.285Z,102619.00
2023-01-22T05:50:00.856Z,102601.25
2023-01-22T05:52:27.478Z,102610.00
2023-01-22T05:54:54.090Z,102612.56
2023-01-22T05:57:20.849Z,102608.13
2023-01-22T05:59:47.642Z,102612.56
2023-01-22T06:02:14.356Z,102613.50
2023-01-22T06:04:41.055Z,102611.69
2023-01-22T06:07:07.644Z,102609.75
2023-01-22T06:09:34.290Z,102603.47
2023-01-22T06:12:00.868Z,102611.47
2023-01-22T06:14:27.557Z,102618.53
2023-01-22T06:16:54.365Z,102620.25
2023-01-22T06:19:23.615Z,102614.97
2023-01-22T06:21:50.777Z,102621.22
2023-01-22T06:24:17.485Z,102612.19
2023-01-22T06:26:46.265Z,102623.66
2023-01-22T06:29:13.074Z,102620.97
2023-01-22T06:31:39.881Z,102621.84
2023-01-22T06:34:09.866Z,102620.94
2023-01-22T06:36:36.684Z,102634.22
2023-01-22T06:39:03.737Z,102621.81
2023-01-22T06:41:33.480Z,102626.31
2023-01-22T06:44:00.240Z,102623.44
2023-01-22T06:46:27.046Z,102622.56
2023-01-22T06:48:53.610Z,102623.38
2023-01-22T06:51:20.412Z,102632.16
2023-01-22T06:53:47.086Z,102636.59
2023-01-22T06:56:13.705Z,102639.19
2023-01-22T06:58:43.025Z,102637.47
2023-01-22T07:01:10.390Z,102647.25
2023-01-22T07:03:37.245Z,102650.66
2023-01-22T07:06:05.825Z,102642.81
2023-01-22T07:08:34.016Z,102645.44
2023-01-22T07:11:02.258Z,102641.00
2023-01-22T07:13:29.149Z,102648.06
2023-01-22T07:15:56.240Z,102645.22
2023-01-22T07:18:24.374Z,102645.16
2023-01-22T07:20:51.354Z,102648.78
2023-01-22T07:23:18.503Z,102649.69
2023-01-22T07:25:46.308Z,102640.78
2023-01-22T07:28:15.379Z,102648.63
2023-01-22T07:30:46.359Z,102658.50
2023-01-22T07:33:15.080Z,102658.47
2023-01-22T07:35:42.512Z,102655.78
2023-01-22T07:38:09.904Z,102653.19
2023-01-22T07:40:36.732Z,102661.22
2023-01-22T07:43:10.542Z,102658.56
2023-01-22T07:45:37.317Z,102665.56
2023-01-22T07:48:10.831Z,102670.03
2023-01-22T07:50:40.877Z,102677.94
2023-01-22T08:53:56.826Z,102717.94
2023-01-22T08:56:23.483Z,102726.75
2023-01-22T08:58:51.768Z,102723.28
2023-01-22T09:01:20.567Z,102719.59
2023-01-22T09:03:48.710Z,102721.19
2023-01-22T09:06:15.757Z,102724.66
2023-01-22T10:17:30.485Z,102711.75
2023-01-22T10:20:05.667Z,102714.53
2023-01-22T10:22:35.051Z,102714.47
2023-01-22T10:25:01.774Z,102719.56
2023-01-22T10:27:39.875Z,102715.09
2023-01-22T10:30:24.144Z,102715.09
2023-01-22T10:33:16.597Z,102722.22
2023-01-22T10:35:50.242Z,102728.38
2023-01-22T10:38:31.289Z,102719.41
2023-01-22T10:41:02.594Z,102719.06
2023-01-22T10:43:42.028Z,102718.94
2023-01-22T10:46:26.140Z,102720.56
2023-01-22T10:49:08.207Z,102717.88
2023-01-22T10:51:42.154Z,102716.16
2023-01-22T10:54:43.744Z,102718.75
2023-01-22T10:57:33.476Z,102709.97
2023-01-22T11:00:51.431Z,102704.41
2023-01-22T11:03:33.620Z,102700.84
2023-01-22T11:06:18.412Z,102700.63
2023-01-22T11:09:00.123Z,102696.00
2023-01-22T11:11:41.111Z,102700.50
2023-01-22T11:14:24.568Z,102697.75
2023-01-22T11:32:40.867Z,102690.94
2023-01-22T11:35:48.178Z,102699.66
2023-01-22T11:38:35.178Z,102691.47
2023-01-22T11:41:36.163Z,102690.22
2023-01-22T11:44:53.967Z,102684.59
2023-01-22T11:47:48.874Z,102681.03
2023-01-22T11:50:43.480Z,102679.19
2023-01-22T11:53:59.432Z,102680.00
2023-01-22T11:57:08.497Z,102678.19
2023-01-22T12:00:37.388Z,102677.16
2023-01-22T12:04:18.143Z,102668.34
2023-01-22T12:07:18.188Z,102668.50
2023-01-22T12:10:35.980Z,102669.19
2023-01-22T12:13:23.808Z,102667.69
2023-01-22T12:16:21.993Z,102668.56
2023-01-22T12:19:27.247Z,102666.06
2023-01-22T12:22:45.435Z,102668.94
2023-01-22T12:25:36.148Z,102670.91
2023-01-22T12:28:14.811Z,102682.75
2023-01-22T12:31:10.760Z,102672.91
2023-01-22T12:33:46.600Z,102666.97
2023-01-22T12:36:22.224Z,102675.81
2023-01-22T12:38:56.277Z,102675.16
2023-01-22T12:41:57.326Z,102672.25
2023-01-22T12:44:54.484Z,102674.84
2023-01-22T12:47:40.857Z,102666.91
2023-01-22T12:50:24.572Z,102672.00
2023-01-22T12:53:07.446Z,102669.56
2023-01-22T12:55:43.242Z,102672.97
2023-01-22T12:58:33.538Z,102670.16
2023-01-22T13:01:12.104Z,102666.56
2023-01-22T13:03:42.165Z,102656.78
2023-01-22T13:06:41.172Z,102651.16
2023-01-22T13:09:27.477Z,102652.94
2023-01-22T13:11:54.181Z,102657.38
2023-01-22T13:14:29.093Z,102658.19
2023-01-22T13:17:03.419Z,102666.22
2023-01-22T13:19:42.287Z,102665.53
2023-01-22T13:22:25.821Z,102662.22
2023-01-22T13:24:59.163Z,102664.97
2023-01-22T13:27:49.416Z,102657.97
2023-01-22T13:30:28.570Z,102671.31
2023-01-22T13:33:16.271Z,102663.25
2023-01-22T13:35:49.317Z,102670.44
2023-01-22T13:38:40.065Z,102669.47
2023-01-22T13:44:35.815Z,102667.59
2023-01-22T13:47:03.859Z,102658.75
2023-01-22T13:49:43.044Z,102657.59
2023-01-22T13:52:22.610Z,102665.47
2023-01-22T13:55:05.345Z,102663.53
2023-01-22T13:57:33.588Z,102673.38
2023-01-22T14:00:04.603Z,102677.88
2023-01-22T14:02:36.225Z,102688.22
2023-01-22T14:05:03.860Z,102697.25
2023-01-22T14:07:37.936Z,102687.63
2023-01-22T14:10:25.123Z,102685.88
2023-01-22T14:13:13.524Z,102686.78
2023-01-22T14:15:42.378Z,102681.47
2023-01-22T14:18:21.746Z,102686.72
2023-01-22T14:20:51.426Z,102687.69
2023-01-22T14:23:18.176Z,102687.56
2023-01-22T14:25:50.464Z,102683.09
2023-01-22T14:28:18.797Z,102690.94
2023-01-22T14:30:46.319Z,102693.50
2023-01-22T14:33:25.144Z,102695.28
2023-01-22T14:35:53.985Z,102681.03
2023-01-22T14:38:26.105Z,102694.84
2023-01-22T14:40:53.989Z,102691.31
2023-01-22T14:46:08.843Z,102688.84
2023-01-22T15:02:20.725Z,102703.09
2023-01-22T15:05:03.634Z,102707.56
2023-01-22T15:07:30.378Z,102709.34
2023-01-22T15:09:57.215Z,102714.75
2023-01-22T15:12:31.508Z,102705.25
2023-01-22T15:14:58.379Z,102722.03
2023-01-22T15:17:25.164Z,102719.56
2023-01-22T15:19:52.224Z,102707.06
2023-01-22T15:22:26.541Z,102718.63
2023-01-22T15:24:55.678Z,102719.34
2023-01-22T15:27:23.763Z,102727.44
2023-01-22T15:29:50.432Z,102724.78
2023-01-22T15:32:17.398Z,102730.88
2023-01-22T15:34:45.492Z,102733.44
2023-01-22T15:37:14.798Z,102728.22
2023-01-22T15:39:42.415Z,102723.06
2023-01-22T15:42:09.371Z,102729.03
2023-01-22T15:44:37.500Z,102737.13
2023-01-22T15:47:10.810Z,102731.75
2023-01-22T15:49:40.899Z,102741.50
2023-01-22T15:52:10.063Z,102743.44
2023-01-22T15:54:51.342Z,102754.84
2023-01-22T15:57:18.074Z,102748.88
2023-01-22T15:59:44.773Z,102751.44
2023-01-22T16:02:12.183Z,102751.63
2023-01-22T16:04:41.746Z,102749.88
2023-01-22T16:07:08.358Z,102748.03
2023-01-22T16:09:35.035Z,102755.19
2023-01-22T16:12:01.729Z,102756.03
2023-01-22T16:14:29.496Z,102759.63
2023-01-22T16:16:56.313Z,102756.94
2023-01-22T16:19:23.317Z,102763.22
2023-01-22T16:21:53.778Z,102757.06
2023-01-22T16:24:20.680Z,102762.44
2023-01-22T16:26:47.336Z,102768.66
2023-01-22T16:29:17.460Z,102780.13
2023-01-22T16:31:44.458Z,102763.47
2023-01-22T16:34:17.060Z,102768.81
2023-01-22T16:36:46.674Z,102765.94
2023-01-22T16:39:23.600Z,102776.59
2023-01-22T16:41:52.652Z,102767.63
2023-01-22T16:44:27.121Z,102757.13
2023-01-22T16:46:59.795Z,102769.59
2023-01-22T16:49:32.359Z,102772.28
2023-01-22T16:52:21.547Z,102778.53
2023-01-22T16:54:49.351Z,102781.31
2023-01-22T16:57:16.455Z,102769.91
2023-01-22T16:59:43.201Z,102781.47
2023-01-22T17:02:16.944Z,102780.56
2023-01-22T17:04:44.675Z,102778.78
2023-01-22T17:07:27.452Z,102774.25
2023-01-22T17:09:59.566Z,102789.41
2023-01-22T17:12:26.491Z,102783.97
2023-01-22T17:14:53.317Z,102776.09
2023-01-22T17:17:19.979Z,102786.59
2023-01-22T17:19:46.631Z,102788.03
2023-01-22T17:22:13.482Z,102776.59
2023-01-22T17:24:43.506Z,102783.69
2023-01-22T17:27:16.019Z,102787.44
2023-01-22T17:29:42.683Z,102796.38
2023-01-22T17:32:09.427Z,102792.81
2023-01-22T17:34:37.434Z,102804.13
2023-01-22T17:37:09.408Z,102792.66
2023-01-22T17:39:37.276Z,102799.97
2023-01-22T17:42:04.459Z,102794.59
2023-01-22T17:44:31.056Z,102807.19
2023-01-22T17:46:59.974Z,102810.72
2023-01-22T17:49:30.366Z,102798.25
2023-01-22T17:51:57.048Z,102794.03
2023-01-22T17:54:23.825Z,102800.91
2023-01-22T17:56:53.040Z,102793.91
2023-01-22T17:59:22.410Z,102800.16
2023-01-22T18:31:37.079Z,102823.06
2023-01-22T18:34:07.573Z,102824.03
2023-01-22T18:44:48.077Z,102818.75
2023-01-22T18:47:18.097Z,102828.44
2023-01-22T19:06:17.614Z,102827.06
2023-01-22T19:08:57.579Z,102831.63
2023-01-22T19:11:25.632Z,102832.56
2023-01-22T19:13:56.008Z,102839.69
2023-01-22T19:16:25.348Z,102840.53
2023-01-22T19:19:11.144Z,102845.84
2023-01-22T19:24:29.193Z,102846.00
2023-01-22T19:32:27.469Z,102850.44
2023-01-22T19:51:16.420Z,102859.22
2023-01-22T20:02:21.933Z,102870.59
2023-01-22T20:04:48.935Z,102877.78
2023-01-22T20:23:23.902Z,102908.06
2023-01-22T20:25:51.443Z,102907.31
2023-01-22T20:34:02.383Z,102905.72
2023-01-22T20:36:29.428Z,102912.09
2023-01-22T20:38:57.635Z,102906.09
2023-01-22T20:46:53.152Z,102896.41
2023-01-22T20:49:19.900Z,102899.94
2023-01-22T21:35:08.328Z,102913.91
2023-01-22T21:37:35.022Z,102922.59
2023-01-22T21:40:01.736Z,102921.00
2023-01-22T21:42:47.558Z,102919.34
2023-01-22T21:45:33.062Z,102925.56
2023-01-22T21:58:50.706Z,102927.34
2023-01-22T22:09:27.620Z,102926.63
2023-01-22T22:12:01.225Z,102932.84
2023-01-22T22:14:28.917Z,102924.88
2023-01-22T22:16:56.136Z,102924.78
2023-01-22T23:06:16.902Z,102936.66
2023-01-22T23:17:04.800Z,102936.72
2023-01-22T23:19:31.445Z,102938.44
2023-01-22T23:22:01.154Z,102942.97
2023-01-22T23:24:28.649Z,102941.09
2023-01-22T23:26:55.952Z,102947.22
2023-01-22T23:29:26.608Z,102946.38
2023-01-22T23:31:53.372Z,102949.06
2023-01-22T23:34:23.046Z,102944.53
2023-01-22T23:36:51.420Z,102943.56
2023-01-22T23:39:22.140Z,102938.28
2023-01-22T23:41:51.931Z,102939.34
2023-01-22T23:44:18.793Z,102940.34
2023-01-22T23:46:45.674Z,102942.19
2023-01-22T23:49:12.443Z,102952.06
2023-01-22T23:51:42.173Z,102951.22
2023-01-22T23:54:09.391Z,102961.78
2023-01-22T23:56:36.325Z,102963.53
2023-01-22T23:59:03.838Z,102962.63
